Motte Rimrock Reserve, California Weather observations

Data are for 10 minute period ending at time listed.
 Day   Time   Solar   Ave.   Ave.  Ave.  Vector  Max.   Baro.   Total    
  of    of     Rad.   Air    Rel.  Wind   Wind   Wind  Press.  Precip.   
Year   Day            Temp.  Hum.  Speed  Dir.   Gust                    
2018   (PST)  Kw/m2    F      %     mph   deg.    mph    mb.     in.     
-------------------------------------------------------------------------
 173   15:40   0.58   92.6    26   11.5   294    16.4   942.3    0.00 
 173   15:50   0.55   92.2    26   11.7   315    15.6   942.1    0.00 
 173   16:00   0.52   92.1    26   12.0   316    16.4   942.0    0.00 
 173   16:10   0.49   92.1    26   11.3   310    14.8   941.9    0.00 
 173   16:20   0.46   91.7    26   12.2   311    16.1   941.8    0.00 
 173   16:30   0.43   91.6    26   12.1   310    15.9   941.7    0.00 
 173   16:40   0.40   91.4    26   12.5   311    16.7   941.6    0.00 
 173   16:50   0.37   90.8    26   13.6   312    17.4   941.6    0.00 
 173   17:00   0.34   90.3    26   14.4   316    19.4   941.6    0.00 
 173   17:10   0.30   89.2    27   14.8   309    18.9   941.4    0.00 
 173   17:20   0.27   88.6    27   14.7   301    18.3   941.4    0.00 
 173   17:30   0.24   87.9    27   14.9   298    19.1   941.5    0.00 
 173   17:40   0.21   87.0    27   15.3   300    19.7   941.6    0.00 
 173   17:50   0.18   86.5    27   14.5   299    18.1   941.7    0.00 
 173   18:00   0.15   85.7    27   15.3   300    19.4   941.7    0.00 
 173   18:10   0.12   85.0    27   13.8   300    18.7   941.7    0.00 
 173   18:20   0.09   84.3    28   13.7   297    18.1   941.8    0.00 
 173   18:30   0.07   83.2    28   13.6   302    17.5   941.9    0.00 
 173   18:40   0.05   82.1    28   13.4   301    16.9   941.9    0.00 
 173   18:50   0.03   81.1    29   14.1   302    18.0   942.0    0.00 
 173   19:00   0.02   80.1    31   14.0   298    17.0   942.1    0.00 
 173   19:10   0.01   79.3    32   12.5   299    17.5   942.2    0.00 
 173   19:20   0.01   78.8    32   11.3   305    17.0   942.4    0.00 
 173   19:30   0.01   78.1    35    8.7   313    14.6   942.6    0.00 
 173   19:40   0.00   77.3    38    7.1   323    10.1   942.7    0.00 
 173   19:50   0.00   76.6    41    6.7   328     8.8   942.9    0.00 
 173   20:00   0.00   75.8    43    5.3   323     7.3   943.0    0.00 
 173   20:10   0.00   75.3    42    3.8   328     5.9   943.1    0.00 
 173   20:20   0.00   74.8    43    2.2   306     5.0   943.2    0.00 
 173   20:30   0.00   74.3    45    2.1   346     4.7   943.3    0.00 
 173   20:40   0.00   74.1    45    0.1    71     0.9   943.4    0.00 
 173   20:50   0.00   73.7    46    1.0   329     2.9   943.5    0.00 
 173   21:00   0.00   73.2    47    1.3   304     2.6   943.5    0.00 
 173   21:10   0.00   72.3    50    0.6   191     2.1   943.6    0.00 
 173   21:20   0.00   71.9    53    0.3   187     1.4   943.6    0.00 
 173   21:30   0.00   71.4    54    0.0     0     0.0   943.6    0.00 
 173   21:40   0.00   70.8    56    1.8   164     2.9   943.6    0.00 
 173   21:50   0.00   70.2    57    2.6   164     3.1   943.5    0.00 
 173   22:00   0.00   69.9    57    2.2   138     2.9   943.5    0.00 
 173   22:10   0.00   69.9    56    1.4   150     2.6   943.5    0.00 
 173   22:20   0.00   69.6    56    1.4   152     2.4   943.4    0.00 
 173   22:30   0.00   69.0    57    0.8   142     2.6   943.4    0.00 
 173   22:40   0.00   68.6    58    2.8   121     3.4   943.3    0.00 
 173   22:50   0.00   69.0    57    0.9    97     2.3   943.3    0.00 
 173   23:00   0.00   69.3    57    0.2    70     1.1   943.2    0.00 
 173   23:10   0.00   69.5    58    2.0    21     3.1   943.1    0.00 
 173   23:20   0.00   69.1    60    2.7   359     3.8   943.0    0.00 
 173   23:30   0.00   68.1    62    4.7   342     6.4   942.9    0.00 
 173   23:40   0.00   66.9    66    4.9   344     6.7   942.9    0.00 
 173   23:50   0.00   66.2    67    3.4   355     5.1   942.8    0.00 
 174    0:00   0.00   65.6    68    3.4   344     4.9   942.8    0.00 
 174    0:10   0.00   65.1    70    3.5   337     5.1   942.7    0.00 
 174    0:20   0.00   64.7    72    5.0   332     5.9   942.7    0.00 
 174    0:30   0.00   64.3    74    4.4   326     5.4   942.6    0.00 
 174    0:40   0.00   63.9    76    3.6   314     4.8   942.5    0.00 
 174    0:50   0.00   63.7    77    2.7   310     3.9   942.4    0.00 
 174    1:00   0.00   63.7    78    3.2   342     4.6   942.3    0.00 
 174    1:10   0.00   64.0    76    3.2    43     4.2   942.4    0.00 
 174    1:20   0.00   63.7    76    2.3    15     3.7   942.4    0.00 
 174    1:30   0.00   62.7    80    2.3   346     3.6   942.3    0.00 
 174    1:40   0.00   62.4    81    1.1   353     2.3   942.3    0.00 
 174    1:50   0.00   62.2    81    3.0   350     5.9   942.3    0.00 
 174    2:00   0.00   61.6    84    5.0   343     6.7   942.2    0.00 
 174    2:10   0.00   61.7    84    3.3    13     5.4   942.2    0.00 
 174    2:20   0.00   61.5    83    2.7    10     4.7   942.2    0.00 
 174    2:30   0.00   60.7    85    5.2   329     6.9   942.2    0.00 
 174    2:40   0.00   60.0    87    4.4   333     5.9   942.1    0.00 
 174    2:50   0.00   59.8    88    3.6   338     5.1   942.1    0.00 
 174    3:00   0.00   59.7    88    2.9     0     4.7   942.2    0.00 
 174    3:10   0.00   59.9    88    3.4    10     4.9   942.1    0.00 
 174    3:20   0.00   59.6    89    4.7   350     5.8   942.0    0.00 
 174    3:30   0.00   59.2    90    4.9   355     6.0   942.1    0.00 
 174    3:40   0.00   59.0    91    3.9   348     5.6   942.1    0.00 
 174    3:50   0.00   58.8    91    3.0   337     3.7   942.0    0.00 
 174    4:00   0.00   58.9    92    1.8   338     2.9   942.0    0.00 
 174    4:10   0.00   59.0    92    1.5   333     2.3   942.0    0.00 
 174    4:20   0.00   59.1    92    1.5    28     2.0   942.0    0.00 
 174    4:30   0.00   58.9    92    0.8    28     1.7   942.1    0.00 
 174    4:40   0.00   58.8    92    0.7   134     1.8   942.1    0.00 
 174    4:50   0.00   58.4    92    0.7   136     1.5   942.1    0.00 
 174    5:00   0.01   58.4    92    0.2   136     0.8   942.2    0.00 
 174    5:10   0.02   58.7    92    0.4   136     1.2   942.2    0.00 
 174    5:20   0.04   58.7    92    1.4   136     2.0   942.2    0.00 
 174    5:30   0.07   58.2    92    3.5   170     4.3   942.2    0.00 
 174    5:40   0.10   57.9    92    4.1   176     5.0   942.2    0.00 
 174    5:50   0.12   58.3    92    3.8   182     4.8   942.3    0.00 
 174    6:00   0.15   58.7    92    3.0   184     4.0   942.4    0.00 
 174    6:10   0.18   59.2    91    2.8   185     3.7   942.6    0.00 
 174    6:20   0.19   59.5    90    2.3   179     3.6   942.8    0.00 
 174    6:30   0.22   59.7    90    2.3   175     3.6   943.0    0.00 
 174    6:40   0.23   59.7    91    2.4   175     3.7   943.1    0.00 
 174    6:50   0.30   62.0    89    1.1   210     3.0   943.2    0.00 
 174    7:00   0.34   63.1    83    2.5   186     4.4   943.4    0.00 
 174    7:10   0.37   63.5    81    2.6   200     4.2   943.5    0.00 
 174    7:20   0.40   64.8    78    1.6   204     3.7   943.5    0.00 
 174    7:30   0.44   66.6    73    1.6   171     3.3   943.6    0.00 
 174    7:40   0.47   68.0    69    1.4   233     3.2   943.7    0.00 
 174    7:50   0.51   69.7    65    2.1   131     4.3   943.8    0.00 
 174    8:00   0.54   69.9    64    2.7   147     4.4   943.9    0.00 
 174    8:10   0.56   70.8    62    3.6   111     7.2   943.9    0.00 
 174    8:20   0.59   71.0    61    4.1   121     9.1   943.8    0.00 
 174    8:30   0.62   72.2    57    2.8   184     6.6   943.8    0.00 
 174    8:40   0.65   73.5    54    2.8   165     6.4   943.7    0.00 
 174    8:50   0.68   74.1    52    2.8   183     5.5   943.7    0.00 
 174    9:00   0.71   75.7    48    1.5   178     5.8   943.7    0.00 
 174    9:10   0.73   77.1    46    3.9   127     9.2   943.7    0.00 
 174    9:20   0.75   76.7    46    4.3   134     8.4   943.7    0.00 
 174    9:30   0.77   77.5    42    3.4   217     5.9   943.7    0.00 
 174    9:40   0.79   78.5    39    5.1   185     9.9   943.6    0.00 
 174    9:50   0.81   79.3    36    3.0   196     7.8   943.7    0.00 
 174   10:00   0.83   80.3    33    2.6   241     7.0   943.6    0.00 
 174   10:10   0.84   81.3    32    5.8   201    11.2   943.6    0.00 
 174   10:20   0.86   81.8    31    3.6   200     9.7   943.6    0.00 
 174   10:30   0.87   82.5    31    6.5   211    11.2   943.6    0.00 
 174   10:40   0.88   82.4    33    5.5   198    13.2   943.5    0.00 
 174   10:50   0.89   82.7    32    5.9   195    13.1   943.5    0.00 
 174   11:00   0.90   83.8    31    8.3   148    14.0   943.4    0.00 
 174   11:10   0.91   83.9    30   10.1   152    15.6   943.4    0.00 
 174   11:20   0.91   83.8    31   10.2   139    14.9   943.4    0.00 
 174   11:30   0.91   83.4    30    7.9   136    15.3   943.4    0.00 
 174   11:40   0.92   84.8    28    9.2   142    15.6   943.3    0.00 
 174   11:50   0.92   85.9    26   11.8   162    17.5   943.2    0.00 
 174   12:00   0.92   85.7    26   14.1   141    23.4   943.2    0.00 
 174   12:10   0.92   85.3    26   14.1   156    18.9   943.2    0.00 
 174   12:20   0.91   84.8    26   14.1   155    22.0   943.1    0.00 
 174   12:30   0.91   85.0    26   13.8   159    20.3   943.1    0.00 
 174   12:40   0.91   85.0    25   14.6   162    19.5   943.1    0.00 
 174   12:50   0.90   85.0    26   14.4   157    20.2   943.1    0.00 
 174   13:00   0.87   85.2    26   12.7   173    17.7   943.2    0.00 
 174   13:10   0.89   85.5    25    9.9   170    15.8   943.2    0.00 
 174   13:20   0.87   85.3    25    7.7   188    15.7   943.2    0.00 
 174   13:30   0.86   85.1    25    7.1   176    13.4   943.1    0.00 
 174   13:40   0.84   85.7    32    4.9   253     9.8   943.1    0.00 
 174   13:50   0.82   84.5    35    6.3   284    11.0   943.1    0.00 
 174   14:00   0.80   85.2    34    7.0   304    14.8   943.1    0.00 
 174   14:10   0.79   85.5    32    5.6   326    14.0   943.1    0.00 
 174   14:20   0.76   84.4    29    9.2   170    15.1   943.0    0.00 
 174   14:30   0.74   84.6    29    9.6   160    16.1   943.0    0.00 
 174   14:40   0.73   84.7    28   12.1   147    16.0   942.9    0.00 
 174   14:50   0.71   84.1    30   12.0   130    19.1   942.9    0.00 
 174   15:00   0.69   84.1    29   11.6   134    17.0   942.9    0.00 
 174   15:10   0.66   83.0    31   11.3   130    16.6   942.8    0.00 
 174   15:20   0.64   82.5    32   10.7   129    15.2   942.8    0.00 
 174   15:30   0.61   82.2    32    9.6   137    14.2   942.8    0.00 

Return to Motte Rimrock Reserve graphs page.


Western Regional Climate Center,wrcc@dri.edu